createdAt,value
2023-02-19T00:00:00.254Z,101754.41
2023-02-19T00:00:31.626Z,101752.06
2023-02-19T00:01:11.817Z,101748.53
2023-02-19T00:01:45.256Z,101751.25
2023-02-19T00:02:16.578Z,101752.84
2023-02-19T00:02:47.913Z,101747.41
2023-02-19T00:03:19.244Z,101746.97
2023-02-19T00:03:56.283Z,101748.53
2023-02-19T00:04:27.683Z,101745.03
2023-02-19T00:04:59.547Z,101747.28
2023-02-19T00:05:30.896Z,101746.97
2023-02-19T00:06:04.085Z,101750.47
2023-02-19T00:06:36.200Z,101754.00
2023-02-19T00:07:07.530Z,101748.53
2023-02-19T00:07:38.958Z,101750.47
2023-02-19T00:08:10.533Z,101750.81
2023-02-19T00:08:41.917Z,101757.06
2023-02-19T00:09:15.406Z,101754.31
2023-02-19T00:09:47.178Z,101748.09
2023-02-19T00:10:18.490Z,101753.53
2023-02-19T00:10:50.053Z,101761.69
2023-02-19T00:11:24.456Z,101758.63
2023-02-19T00:11:55.840Z,101753.53
2023-02-19T00:12:27.561Z,101752.41
2023-02-19T00:12:58.873Z,101756.25
2023-02-19T00:13:31.168Z,101755.13
2023-02-19T00:14:03.330Z,101758.97
2023-02-19T00:14:34.704Z,101757.84
2023-02-19T00:15:06.282Z,101753.53
2023-02-19T00:15:37.948Z,101759.78
2023-02-19T00:16:12.162Z,101750.81
2023-02-19T00:16:43.683Z,101748.09
2023-02-19T00:17:15.019Z,101751.59
2023-02-19T00:17:46.459Z,101748.09
2023-02-19T00:18:17.861Z,101752.75
2023-02-19T00:18:49.609Z,101750.03
2023-02-19T00:19:21.495Z,101755.81
2023-02-19T00:19:52.895Z,101756.59
2023-02-19T00:20:24.388Z,101755.00
2023-02-19T00:20:57.270Z,101760.78
2023-02-19T00:21:28.891Z,101748.31
2023-02-19T00:22:00.260Z,101763.63
2023-02-19T00:22:31.613Z,101754.66
2023-02-19T00:23:03.023Z,101757.41
2023-02-19T00:23:34.822Z,101761.25
2023-02-19T00:24:07.727Z,101760.13
2023-02-19T00:24:39.034Z,101760.78
2023-02-19T00:25:10.365Z,101761.25
2023-02-19T00:25:41.678Z,101755.00
2023-02-19T00:26:18.649Z,101765.91
2023-02-19T00:26:50.356Z,101751.50
2023-02-19T00:27:21.685Z,101762.38
2023-02-19T00:27:53.050Z,101765.09
2023-02-19T00:28:24.444Z,101766.69
2023-02-19T00:28:57.084Z,101766.69
2023-02-19T00:29:28.435Z,101765.09
2023-02-19T00:29:59.833Z,101763.97
2023-02-19T00:30:31.272Z,101768.63
2023-02-19T00:31:06.867Z,101759.66
2023-02-19T00:31:38.362Z,101767.81
2023-02-19T00:32:09.819Z,101771.34
2023-02-19T00:32:41.210Z,101777.56
2023-02-19T00:33:12.564Z,101776.00
2023-02-19T00:33:45.223Z,101761.59
2023-02-19T00:34:16.641Z,101766.25
2023-02-19T00:34:47.957Z,101771.69
2023-02-19T00:35:19.274Z,101774.41
2023-02-19T00:35:50.640Z,101764.31
2023-02-19T00:36:23.078Z,101767.03
2023-02-19T00:36:54.468Z,101771.69
2023-02-19T00:37:25.806Z,101763.53
2023-02-19T00:37:57.154Z,101763.53
2023-02-19T00:38:28.830Z,101766.69
2023-02-19T00:39:00.307Z,101760.78
2023-02-19T00:39:31.837Z,101764.31
2023-02-19T00:40:03.245Z,101762.38
2023-02-19T00:40:34.652Z,101760.78
2023-02-19T00:41:19.076Z,101765.09
2023-02-19T00:41:50.642Z,101766.69
2023-02-19T00:42:22.008Z,101763.53
2023-02-19T00:42:53.371Z,101773.28
2023-02-19T00:43:24.698Z,101772.47
2023-02-19T00:43:58.320Z,101770.53
2023-02-19T00:44:29.805Z,101759.56
2023-02-19T00:45:01.179Z,101769.41
2023-02-19T00:45:34.911Z,101764.31
2023-02-19T00:46:06.306Z,101770.88
2023-02-19T00:46:41.255Z,101769.75
2023-02-19T00:47:12.663Z,101765.09
2023-02-19T00:47:44.298Z,101774.84
2023-02-19T00:48:15.924Z,101760.47
2023-02-19T00:48:47.362Z,101765.44
2023-02-19T00:49:23.244Z,101769.41
2023-02-19T00:49:54.632Z,101778.38
2023-02-19T00:50:26.040Z,101774.41
2023-02-19T00:50:57.419Z,101774.84
2023-02-19T00:51:32.103Z,101777.56
2023-02-19T00:52:03.637Z,101767.03
2023-02-19T00:52:35.210Z,101777.56
2023-02-19T00:53:06.537Z,101772.94
2023-02-19T00:53:38.052Z,101768.63
2023-02-19T00:54:10.915Z,101776.00
2023-02-19T00:54:42.294Z,101773.28
2023-02-19T00:55:13.680Z,101779.50
2023-02-19T00:55:45.029Z,101763.97
2023-02-19T00:56:16.935Z,101770.22
2023-02-19T00:56:48.691Z,101765.56
2023-02-19T00:57:20.089Z,101765.09
2023-02-19T00:57:51.666Z,101762.03
2023-02-19T00:58:23.072Z,101764.31
2023-02-19T00:58:54.523Z,101768.63
2023-02-19T00:59:25.911Z,101771.00
2023-02-19T00:59:57.306Z,101768.63
2023-02-19T01:00:28.787Z,101771.00
2023-02-19T01:01:00.466Z,101763.97
2023-02-19T01:01:31.920Z,101772.13
2023-02-19T01:02:03.639Z,101772.94
2023-02-19T01:02:35.056Z,101766.69
2023-02-19T01:03:06.391Z,101781.09
2023-02-19T01:03:39.106Z,101762.03
2023-02-19T01:04:10.558Z,101767.81
2023-02-19T01:04:41.994Z,101773.72
2023-02-19T01:05:13.570Z,101776.00
2023-02-19T01:05:44.885Z,101777.56
2023-02-19T01:06:19.216Z,101775.19
2023-02-19T01:06:50.550Z,101773.28
2023-02-19T01:07:21.901Z,101781.44
2023-02-19T01:07:53.245Z,101779.84
2023-02-19T01:08:25.128Z,101780.63
2023-02-19T01:08:56.741Z,101776.34
2023-02-19T01:09:28.074Z,101784.50
2023-02-19T01:09:59.447Z,101788.00
2023-02-19T01:10:30.787Z,101779.84
2023-02-19T01:11:03.525Z,101784.84
2023-02-19T01:11:35.756Z,101779.84
2023-02-19T01:12:07.119Z,101789.59
2023-02-19T01:12:38.515Z,101785.75
2023-02-19T01:13:10.678Z,101788.00
2023-02-19T01:13:42.984Z,101787.66
2023-02-19T01:14:14.557Z,101788.47
2023-02-19T01:14:45.943Z,101788.81
2023-02-19T01:15:17.395Z,101783.69
2023-02-19T01:15:48.897Z,101796.16
2023-02-19T01:16:24.672Z,101785.19
2023-02-19T01:16:56.159Z,101789.16
2023-02-19T01:17:27.657Z,101790.63
2023-02-19T01:17:59.054Z,101801.63
2023-02-19T01:18:31.202Z,101789.94
2023-02-19T01:19:02.824Z,101796.97
2023-02-19T01:19:34.210Z,101792.66
2023-02-19T01:20:06.032Z,101793.78
2023-02-19T01:20:44.840Z,101794.59
2023-02-19T01:21:18.573Z,101796.16
2023-02-19T01:21:49.988Z,101794.94
2023-02-19T01:22:21.437Z,101791.88
2023-02-19T01:22:53.152Z,101800.03
2023-02-19T01:23:24.880Z,101796.06
2023-02-19T01:23:57.813Z,101801.16
2023-02-19T01:24:29.157Z,101797.53
2023-02-19T01:25:00.508Z,101794.03
2023-02-19T01:25:31.948Z,101796.06
2023-02-19T01:26:08.100Z,101804.22
2023-02-19T01:26:40.471Z,101798.00
2023-02-19T01:27:11.809Z,101789.81
2023-02-19T01:27:43.227Z,101806.16
2023-02-19T01:28:14.698Z,101795.28
2023-02-19T01:28:46.472Z,101798.00
2023-02-19T01:29:17.819Z,101799.13
2023-02-19T01:29:49.179Z,101804.56
2023-02-19T01:30:20.637Z,101797.53
2023-02-19T01:30:51.971Z,101796.41
2023-02-19T01:31:24.671Z,101808.41
2023-02-19T01:31:56.259Z,101804.56
2023-02-19T01:32:27.872Z,101793.22
2023-02-19T01:32:59.190Z,101801.41
2023-02-19T01:33:30.762Z,101803.78
2023-02-19T01:34:03.904Z,101810.00
2023-02-19T01:34:35.538Z,101807.63
2023-02-19T01:35:07.013Z,101799.81
2023-02-19T01:35:39.705Z,101804.44
2023-02-19T01:36:11.850Z,101799.47
2023-02-19T01:36:43.264Z,101805.25
2023-02-19T01:37:14.623Z,101802.53
2023-02-19T01:37:45.925Z,101802.53
2023-02-19T01:38:17.292Z,101800.47
2023-02-19T01:38:49.641Z,101804.78
2023-02-19T01:39:21.025Z,101800.47
2023-02-19T01:39:52.617Z,101805.16
2023-02-19T01:40:24.197Z,101804.38
2023-02-19T01:40:57.319Z,101804.38
2023-02-19T01:41:28.667Z,101802.78
2023-02-19T01:42:00.126Z,101798.13
2023-02-19T01:42:31.531Z,101808.22
2023-02-19T01:43:03.691Z,101806.63
2023-02-19T01:43:56.435Z,101809.34
2023-02-19T01:44:27.769Z,101800.84
2023-02-19T01:45:20.931Z,101799.63
2023-02-19T01:45:52.380Z,101796.44
2023-02-19T01:46:33.405Z,101800.41
2023-02-19T01:47:04.847Z,101807.78
2023-02-19T01:47:36.286Z,101807.44
2023-02-19T01:48:22.911Z,101809.34
2023-02-19T01:48:57.344Z,101811.28
2023-02-19T01:49:48.754Z,101807.78
2023-02-19T01:50:20.528Z,101808.56
2023-02-19T01:51:01.173Z,101814.00
2023-02-19T01:51:35.072Z,101810.84
2023-02-19T01:52:21.754Z,101806.97
2023-02-19T01:52:53.400Z,101806.19
2023-02-19T01:53:30.432Z,101802.66
2023-02-19T01:54:05.408Z,101813.56
2023-02-19T01:54:39.821Z,101808.91
2023-02-19T01:55:13.410Z,101811.16
2023-02-19T01:55:47.597Z,101807.31
2023-02-19T01:56:20.955Z,101805.72
2023-02-19T01:56:54.295Z,101808.00
2023-02-19T01:57:29.997Z,101801.88
2023-02-19T01:58:02.946Z,101811.97
2023-02-19T01:58:36.604Z,101804.16
2023-02-19T01:59:08.754Z,101808.00
2023-02-19T01:59:40.942Z,101808.78
2023-02-19T02:00:15.557Z,101810.25
2023-02-19T02:00:47.255Z,101811.06
2023-02-19T02:01:18.682Z,101804.38
2023-02-19T02:01:50.395Z,101805.97
2023-02-19T02:02:24.994Z,101808.69
2023-02-19T02:02:58.195Z,101807.09
2023-02-19T02:03:30.954Z,101803.25
2023-02-19T02:04:03.662Z,101802.44
2023-02-19T02:04:35.833Z,101800.97
2023-02-19T02:05:15.529Z,101807.09
2023-02-19T02:06:05.425Z,101811.84
2023-02-19T02:06:45.413Z,101799.38
2023-02-19T02:07:36.414Z,101808.34
2023-02-19T02:08:26.904Z,101805.97
2023-02-19T02:09:17.875Z,101801.66
2023-02-19T02:10:19.988Z,101794.63
2023-02-19T02:10:52.842Z,101807.09
2023-02-19T02:11:24.545Z,101808.69
2023-02-19T02:11:55.890Z,101815.25
2023-02-19T02:12:27.214Z,101808.22
2023-02-19T02:12:58.899Z,101809.00
2023-02-19T02:13:32.505Z,101810.94
2023-02-19T02:14:04.782Z,101811.75
2023-02-19T02:14:40.068Z,101808.22
2023-02-19T02:15:12.389Z,101814.00
2023-02-19T02:16:19.520Z,101803.47
2023-02-19T02:17:08.901Z,101808.56
2023-02-19T02:17:55.285Z,101806.19
2023-02-19T02:18:31.264Z,101813.53
2023-02-19T02:19:19.985Z,101817.06
2023-02-19T02:20:07.905Z,101815.47
2023-02-19T02:21:11.538Z,101810.81
2023-02-19T02:21:50.116Z,101807.69
2023-02-19T02:22:26.283Z,101812.34
2023-02-19T02:23:07.143Z,101809.59
2023-02-19T02:24:07.942Z,101817.78
2023-02-19T02:25:03.234Z,101815.06
2023-02-19T02:25:37.661Z,101808.03
2023-02-19T02:26:42.192Z,101821.97
2023-02-19T02:27:40.771Z,101814.94
2023-02-19T02:28:49.004Z,101819.56
2023-02-19T02:29:26.489Z,101818.78
2023-02-19T02:30:37.967Z,101821.16
2023-02-19T02:31:19.251Z,101822.31
2023-02-19T02:31:56.698Z,101818.00
2023-02-19T02:32:35.515Z,101820.72
2023-02-19T02:33:09.414Z,101815.28
2023-02-19T02:33:53.111Z,101816.41
2023-02-19T02:34:34.116Z,101819.13
2023-02-19T02:35:11.324Z,101812.09
2023-02-19T02:35:47.718Z,101815.63
2023-02-19T02:36:27.545Z,101816.41
2023-02-19T02:37:00.008Z,101817.53
2023-02-19T02:37:35.827Z,101818.31
2023-02-19T02:38:11.773Z,101815.16
2023-02-19T02:38:45.992Z,101817.06
2023-02-19T02:39:21.811Z,101823.31
2023-02-19T02:39:54.323Z,101821.38
2023-02-19T02:40:25.855Z,101821.38
2023-02-19T02:40:57.656Z,101821.38
2023-02-19T02:41:29.316Z,101814.69
2023-02-19T02:42:19.002Z,101818.22
2023-02-19T02:42:50.366Z,101830.69
2023-02-19T02:43:21.738Z,101820.94
2023-02-19T02:43:53.189Z,101827.63
2023-02-19T02:44:34.413Z,101821.38
2023-02-19T02:45:35.963Z,101821.38
2023-02-19T02:46:11.549Z,101834.53
2023-02-19T02:46:45.563Z,101823.66
2023-02-19T02:47:37.379Z,101829.09
2023-02-19T02:48:15.136Z,101826.38
2023-02-19T02:48:53.957Z,101829.09
2023-02-19T02:49:25.832Z,101826.72
2023-02-19T02:50:05.136Z,101828.28
2023-02-19T02:50:59.722Z,101829.09
2023-02-19T02:51:37.687Z,101840.75
2023-02-19T02:52:29.420Z,101831.81
2023-02-19T02:53:30.002Z,101831.81
2023-02-19T02:54:37.033Z,101838.84
2023-02-19T02:55:10.962Z,101841.56
2023-02-19T02:55:45.299Z,101831.00
2023-02-19T02:56:18.517Z,101830.22
2023-02-19T02:56:51.289Z,101837.25
2023-02-19T02:57:22.710Z,101834.53
2023-02-19T02:57:54.531Z,101839.16
2023-02-19T02:58:27.949Z,101826.25
2023-02-19T02:59:02.547Z,101833.72
2023-02-19T02:59:38.688Z,101830.22
2023-02-19T03:00:10.837Z,101828.28
2023-02-19T03:01:03.816Z,101829.88
2023-02-19T03:02:01.327Z,101835.66
2023-02-19T03:02:33.186Z,101839.50
2023-02-19T03:03:05.438Z,101836.00
2023-02-19T03:03:41.489Z,101835.22
2023-02-19T03:04:23.170Z,101835.53
2023-02-19T03:05:19.133Z,101842.56
2023-02-19T03:05:54.918Z,101837.13
2023-02-19T03:06:30.192Z,101831.69
2023-02-19T03:07:07.989Z,101839.38
2023-02-19T03:07:47.022Z,101837.13
2023-02-19T03:08:34.285Z,101839.06
2023-02-19T03:09:19.678Z,101831.22
2023-02-19T03:09:51.311Z,101837.47
2023-02-19T03:10:30.819Z,101835.09
2023-02-19T03:11:24.074Z,101842.91
2023-02-19T03:12:18.725Z,101837.81
2023-02-19T03:13:11.827Z,101834.28
2023-02-19T03:14:02.103Z,101845.16
2023-02-19T03:15:09.274Z,101850.59
2023-02-19T03:16:24.580Z,101847.47
2023-02-19T03:17:21.293Z,101843.56
2023-02-19T03:18:15.459Z,101853.31
2023-02-19T03:19:10.517Z,101858.75
2023-02-19T03:19:45.814Z,101847.09
2023-02-19T03:20:21.753Z,101842.81
2023-02-19T03:20:56.536Z,101855.25
2023-02-19T03:21:29.005Z,101849.38
2023-02-19T03:22:09.890Z,101843.56
2023-02-19T03:22:45.011Z,101847.00
2023-02-19T03:23:18.614Z,101848.25
2023-02-19T03:24:09.552Z,101845.88
2023-02-19T03:25:04.154Z,101850.59
2023-02-19T03:25:56.376Z,101849.00
2023-02-19T03:26:28.488Z,101843.56
2023-02-19T03:27:04.015Z,101852.91
2023-02-19T03:27:39.108Z,101848.25
2023-02-19T03:28:13.837Z,101855.63
2023-02-19T03:29:06.211Z,101853.69
2023-02-19T03:29:39.795Z,101850.97
2023-02-19T03:30:19.565Z,101856.03
2023-02-19T03:30:54.670Z,101852.53
2023-02-19T03:31:30.199Z,101854.47
2023-02-19T03:32:06.122Z,101857.63
2023-02-19T03:32:49.464Z,101861.47
2023-02-19T03:33:26.398Z,101855.25
2023-02-19T03:34:02.668Z,101857.16
2023-02-19T03:35:03.583Z,101852.53
2023-02-19T03:35:39.975Z,101857.16
2023-02-19T03:36:15.551Z,101857.16
2023-02-19T03:36:57.931Z,101853.69
2023-02-19T03:37:35.641Z,101863.78
2023-02-19T03:38:13.062Z,101853.69
2023-02-19T03:39:00.017Z,101861.38
2023-02-19T03:39:32.392Z,101856.75
2023-02-19T03:40:04.460Z,101863.78
2023-02-19T03:40:59.773Z,101860.25
2023-02-19T03:41:43.626Z,101860.25
2023-02-19T03:42:37.457Z,101860.59
2023-02-19T03:43:43.530Z,101856.75
2023-02-19T03:44:40.652Z,101864.91
2023-02-19T03:45:17.983Z,101862.19
2023-02-19T03:46:03.618Z,101859.00
2023-02-19T03:46:47.321Z,101863.31
2023-02-19T03:47:25.107Z,101875.78
2023-02-19T03:48:17.038Z,101868.41
2023-02-19T03:48:53.288Z,101863.31
2023-02-19T03:49:49.242Z,101870.00
2023-02-19T03:50:29.597Z,101867.63
2023-02-19T03:51:28.718Z,101877.38
2023-02-19T03:52:14.391Z,101868.75
2023-02-19T03:52:59.639Z,101868.75
2023-02-19T03:54:06.880Z,101871.47
2023-02-19T03:55:00.690Z,101870.69
2023-02-19T03:55:37.546Z,101873.41
2023-02-19T03:56:29.246Z,101872.59
2023-02-19T03:57:08.698Z,101874.53
2023-02-19T03:57:43.078Z,101873.41
2023-02-19T03:58:40.102Z,101883.47
2023-02-19T03:59:18.792Z,101873.72
2023-02-19T03:59:59.240Z,101876.44
2023-02-19T04:00:35.318Z,101881.09
2023-02-19T04:01:17.094Z,101886.53
2023-02-19T04:01:56.689Z,101889.59
2023-02-19T04:02:33.540Z,101888.00
2023-02-19T04:03:26.581Z,101881.75
2023-02-19T04:04:08.994Z,101879.84
2023-02-19T04:04:51.705Z,101886.41
2023-02-19T04:05:27.692Z,101883.69
2023-02-19T04:06:02.639Z,101891.06
2023-02-19T04:06:36.293Z,101887.53
2023-02-19T04:07:08.311Z,101894.09
2023-02-19T04:07:45.318Z,101881.31
2023-02-19T04:08:19.814Z,101891.84
2023-02-19T04:08:55.245Z,101891.84
2023-02-19T04:09:35.567Z,101896.16
2023-02-19T04:10:09.184Z,101896.94
2023-02-19T04:10:41.863Z,101897.28
2023-02-19T04:11:15.654Z,101887.19
2023-02-19T04:11:49.681Z,101898.88
2023-02-19T04:12:21.619Z,101887.88
2023-02-19T04:12:59.319Z,101905.44
2023-02-19T04:13:36.886Z,101896.50
2023-02-19T04:14:18.408Z,101901.13
2023-02-19T04:15:00.737Z,101899.22
2023-02-19T04:15:34.128Z,101901.13
2023-02-19T04:16:11.641Z,101899.88
2023-02-19T04:16:47.678Z,101899.53
2023-02-19T04:17:26.505Z,101899.09
2023-02-19T04:18:02.702Z,101906.91
2023-02-19T04:18:38.778Z,101902.94
2023-02-19T04:19:13.661Z,101908.81
2023-02-19T04:19:48.843Z,101904.53
2023-02-19T04:20:22.336Z,101906.78
2023-02-19T04:20:54.030Z,101916.53
2023-02-19T04:21:28.980Z,101910.28
2023-02-19T04:22:01.512Z,101916.53
2023-02-19T04:22:34.749Z,101909.94
2023-02-19T04:23:07.021Z,101913.81
2023-02-19T04:23:42.740Z,101916.53
2023-02-19T04:24:19.838Z,101913.81
2023-02-19T04:24:55.330Z,101914.59
2023-02-19T04:25:29.235Z,101919.25
2023-02-19T04:26:01.509Z,101915.72
2023-02-19T04:26:34.063Z,101920.38
2023-02-19T04:27:06.256Z,101908.38
2023-02-19T04:27:41.085Z,101919.25
2023-02-19T04:28:15.014Z,101920.03
2023-02-19T04:28:46.660Z,101915.72
2023-02-19T04:29:18.013Z,101914.59
2023-02-19T04:29:49.661Z,101912.66
2023-02-19T04:30:21.894Z,101927.41
2023-02-19T04:30:53.350Z,101920.38
2023-02-19T04:31:26.772Z,101917.66
2023-02-19T04:31:58.160Z,101928.19
2023-02-19T04:32:29.582Z,101923.53
2023-02-19T04:33:01.073Z,101930.09
2023-02-19T04:33:32.787Z,101928.97
2023-02-19T04:34:04.813Z,101928.97
2023-02-19T04:34:36.208Z,101928.19
2023-02-19T04:35:07.805Z,101923.88
2023-02-19T04:35:39.166Z,101924.69
2023-02-19T04:36:11.764Z,101924.69
2023-02-19T04:36:43.261Z,101923.09
2023-02-19T04:37:14.843Z,101925.47
2023-02-19T04:37:46.278Z,101935.56
2023-02-19T04:38:17.808Z,101930.91
2023-02-19T04:38:49.135Z,101931.69
2023-02-19T04:39:20.789Z,101930.91
2023-02-19T04:39:52.151Z,101937.94
2023-02-19T04:40:23.561Z,101936.34
2023-02-19T04:40:54.957Z,101937.13
2023-02-19T04:41:26.474Z,101935.56
2023-02-19T04:41:57.836Z,101931.69
2023-02-19T04:42:29.194Z,101942.56
2023-02-19T04:43:00.526Z,101943.03
2023-02-19T04:43:31.934Z,101942.56
2023-02-19T04:44:03.458Z,101942.56
2023-02-19T04:44:34.924Z,101946.41
2023-02-19T04:45:06.931Z,101946.41
2023-02-19T04:45:39.077Z,101934.75
2023-02-19T04:46:10.513Z,101949.94
2023-02-19T04:46:43.147Z,101948.00
2023-02-19T04:47:17.919Z,101961.59
2023-02-19T04:47:49.377Z,101950.72
2023-02-19T04:48:20.773Z,101948.81
2023-02-19T04:48:52.181Z,101960.81
2023-02-19T04:49:23.556Z,101941.66
2023-02-19T04:49:54.902Z,101949.47
2023-02-19T04:50:26.254Z,101951.84
2023-02-19T04:50:57.652Z,101956.50
2023-02-19T04:51:29.088Z,101948.34
2023-02-19T04:52:00.502Z,101951.84
2023-02-19T04:52:33.277Z,101955.72
2023-02-19T04:53:05.138Z,101949.13
2023-02-19T04:53:37.482Z,101958.09
2023-02-19T04:54:09.113Z,101953.00
2023-02-19T04:54:40.418Z,101964.66
2023-02-19T04:55:11.804Z,101965.91
2023-02-19T04:55:43.326Z,101952.66
2023-02-19T04:56:16.491Z,101955.03
2023-02-19T04:56:47.874Z,101961.28
2023-02-19T04:57:19.233Z,101965.13
2023-02-19T04:57:50.557Z,101964.31
2023-02-19T04:58:22.208Z,101974.06
2023-02-19T04:58:53.623Z,101964.31
2023-02-19T04:59:25.043Z,101969.75
2023-02-19T04:59:56.411Z,101975.19
2023-02-19T05:00:27.787Z,101975.19
2023-02-19T05:00:59.218Z,101970.88
2023-02-19T05:01:30.692Z,101963.88
2023-02-19T05:02:02.069Z,101963.88
2023-02-19T05:02:34.111Z,101965.00
2023-02-19T05:03:05.460Z,101967.72
2023-02-19T05:03:37.859Z,101972.03
2023-02-19T05:04:09.295Z,101976.66
2023-02-19T05:04:41.341Z,101977.13
2023-02-19T05:05:12.717Z,101977.91
2023-02-19T05:05:44.091Z,101964.66
2023-02-19T05:06:15.515Z,101968.16
2023-02-19T05:06:46.877Z,101973.59
2023-02-19T05:07:18.639Z,101972.81
2023-02-19T05:07:50.056Z,101973.59
2023-02-19T05:08:21.435Z,101972.34
2023-02-19T05:08:52.936Z,101972.03
2023-02-19T05:09:24.361Z,101973.16
2023-02-19T05:09:55.963Z,101972.34
2023-02-19T05:10:27.402Z,101972.34
2023-02-19T05:11:00.316Z,101975.06
2023-02-19T05:11:31.832Z,101974.28
2023-02-19T05:12:03.531Z,101977.00
2023-02-19T05:12:34.867Z,101972.69
2023-02-19T05:13:06.481Z,101970.75
2023-02-19T05:13:39.215Z,101978.91
2023-02-19T05:14:10.758Z,101982.75
2023-02-19T05:14:42.151Z,101980.84
2023-02-19T05:15:13.578Z,101985.16
2023-02-19T05:16:01.136Z,101981.28
2023-02-19T05:16:33.231Z,101978.91
2023-02-19T05:17:04.627Z,101981.63
2023-02-19T05:17:36.053Z,101985.16
2023-02-19T05:18:07.392Z,101980.03
2023-02-19T05:18:38.900Z,101981.63
2023-02-19T05:19:13.645Z,101981.97
2023-02-19T05:19:45.098Z,101981.97
2023-02-19T05:20:16.726Z,101984.34
2023-02-19T05:20:48.136Z,101995.22
2023-02-19T05:21:19.521Z,101986.28
2023-02-19T05:21:50.882Z,101990.59
2023-02-19T05:22:22.226Z,101982.75
2023-02-19T05:22:53.609Z,101989.78
2023-02-19T05:23:25.738Z,101995.69
2023-02-19T05:23:57.116Z,102003.03
2023-02-19T05:24:29.906Z,101987.53
2023-02-19T05:25:01.279Z,101996.47
2023-02-19T05:25:32.636Z,101990.25
2023-02-19T05:26:09.565Z,101989.44
2023-02-19T05:26:41.049Z,101991.38
2023-02-19T05:27:12.427Z,101992.16
2023-02-19T05:27:43.885Z,101994.91
2023-02-19T05:28:18.075Z,101994.09
2023-02-19T05:28:52.570Z,101994.91
2023-02-19T05:29:23.983Z,101996.03
2023-02-19T05:29:55.340Z,101994.44
2023-02-19T05:30:26.774Z,102000.00
2023-02-19T05:30:58.235Z,102001.47
2023-02-19T05:31:29.955Z,102005.75
2023-02-19T05:32:01.409Z,102001.47
2023-02-19T05:32:34.955Z,102004.63
2023-02-19T05:33:06.343Z,102007.34
2023-02-19T05:33:38.110Z,101998.28
2023-02-19T05:34:09.935Z,101998.75
2023-02-19T05:34:41.270Z,101998.75
2023-02-19T05:35:12.593Z,102001.00
2023-02-19T05:35:46.504Z,102006.56
2023-02-19T05:36:20.020Z,101999.06
2023-02-19T05:36:51.369Z,101998.63
2023-02-19T05:37:22.837Z,101997.84
2023-02-19T05:37:54.162Z,102001.00
2023-02-19T05:38:25.758Z,102003.28
2023-02-19T05:38:58.219Z,102002.16
2023-02-19T05:39:29.616Z,101998.16
2023-02-19T05:40:01.039Z,102002.94
2023-02-19T05:40:32.910Z,101998.16
2023-02-19T05:41:13.332Z,101998.28
2023-02-19T05:41:44.761Z,101992.41
2023-02-19T05:42:16.135Z,101991.94
2023-02-19T05:42:47.458Z,102001.34
2023-02-19T05:43:19.060Z,101992.72
2023-02-19T05:43:51.226Z,102009.03
2023-02-19T05:44:22.681Z,101998.97
2023-02-19T05:44:54.088Z,102003.59
2023-02-19T05:45:25.775Z,102004.41
2023-02-19T05:45:58.763Z,101997.72
2023-02-19T05:46:30.492Z,102000.88
2023-02-19T05:47:01.965Z,102007.78
2023-02-19T05:47:33.369Z,102007.78
2023-02-19T05:48:05.676Z,102010.97
2023-02-19T05:48:37.280Z,101996.91
2023-02-19T05:49:08.661Z,102007.44
2023-02-19T05:49:40.075Z,102007.44
2023-02-19T05:50:11.414Z,102009.03
2023-02-19T05:50:42.729Z,102008.72
2023-02-19T05:51:16.737Z,102007.13
2023-02-19T05:51:51.019Z,102012.88
2023-02-19T05:52:22.365Z,102001.22
2023-02-19T05:52:53.929Z,102008.25
2023-02-19T05:53:25.297Z,102007.78
2023-02-19T05:53:57.073Z,102006.66
2023-02-19T05:54:29.416Z,102001.22
2023-02-19T05:55:01.017Z,102003.81
2023-02-19T05:55:36.302Z,102002.34
2023-02-19T05:56:35.195Z,102016.72
2023-02-19T05:57:06.683Z,102015.94
2023-02-19T05:57:47.365Z,102006.53
2023-02-19T05:58:18.722Z,102010.50
2023-02-19T05:58:50.158Z,102021.38
2023-02-19T05:59:24.458Z,102015.94
2023-02-19T05:59:56.502Z,102013.22
2023-02-19T06:00:28.203Z,102017.06
2023-02-19T06:00:59.537Z,102020.25
2023-02-19T06:01:31.281Z,102010.50
2023-02-19T06:02:02.624Z,102017.53
2023-02-19T06:02:33.971Z,102028.41
2023-02-19T06:03:05.301Z,102013.56
2023-02-19T06:03:36.689Z,102017.06
2023-02-19T06:04:10.143Z,102022.97
2023-02-19T06:04:41.551Z,102019.78
2023-02-19T06:05:13.479Z,102020.25
2023-02-19T06:05:44.896Z,102026.00
2023-02-19T06:06:18.230Z,102026.34
2023-02-19T06:06:49.669Z,102028.72
2023-02-19T06:07:21.045Z,102018.19
2023-02-19T06:07:52.700Z,102028.25
2023-02-19T06:08:24.125Z,102019.00
2023-02-19T06:08:55.831Z,102020.91
2023-02-19T06:09:27.237Z,102019.00
2023-02-19T06:09:58.615Z,102015.34
2023-02-19T06:10:30.272Z,102023.97
2023-02-19T06:11:01.608Z,102025.88
2023-02-19T06:11:33.404Z,102034.03
2023-02-19T06:12:04.942Z,102027.81
2023-02-19T06:12:36.751Z,102023.16
2023-02-19T06:13:09.722Z,102023.97
2023-02-19T06:13:41.188Z,102029.72
2023-02-19T06:14:14.134Z,102030.53
2023-02-19T06:14:45.588Z,102021.91
2023-02-19T06:15:16.929Z,102026.53
2023-02-19T06:15:48.301Z,102039.00
2023-02-19T06:16:19.769Z,102035.50
2023-02-19T06:16:51.465Z,102031.97
2023-02-19T06:17:23.022Z,102043.97
2023-02-19T06:17:54.342Z,102029.88
2023-02-19T06:18:25.712Z,102043.97
2023-02-19T06:18:57.117Z,102040.75
2023-02-19T06:19:28.462Z,102045.91
2023-02-19T06:20:00.235Z,102046.69
2023-02-19T06:20:32.974Z,102045.72
2023-02-19T06:21:06.102Z,102047.00
2023-02-19T06:21:37.570Z,102049.72
2023-02-19T06:22:09.753Z,102050.50
2023-02-19T06:22:41.097Z,102052.75
2023-02-19T06:23:12.457Z,102055.16
2023-02-19T06:23:44.695Z,102056.28
2023-02-19T06:24:16.024Z,102055.47
2023-02-19T06:24:48.102Z,102052.75
2023-02-19T06:25:20.060Z,102063.63
2023-02-19T06:25:51.391Z,102060.91
2023-02-19T06:26:25.235Z,102063.28
2023-02-19T06:26:56.751Z,102060.56
2023-02-19T06:27:28.256Z,102071.16
2023-02-19T06:27:59.734Z,102069.53
2023-02-19T06:28:31.129Z,102071.16
2023-02-19T06:29:02.775Z,102066.81
2023-02-19T06:29:34.667Z,102064.41
2023-02-19T06:30:06.711Z,102069.06
2023-02-19T06:30:38.119Z,102063.28
2023-02-19T06:31:10.447Z,102073.38
2023-02-19T06:31:42.290Z,102070.66
2023-02-19T06:32:13.907Z,102074.50
2023-02-19T06:32:45.339Z,102069.84
2023-02-19T06:33:16.671Z,102071.31
2023-02-19T06:33:50.511Z,102075.63
2023-02-19T06:34:21.931Z,102072.91
2023-02-19T06:34:53.305Z,102070.53
2023-02-19T06:35:24.692Z,102082.66
2023-02-19T06:35:59.974Z,102076.75
2023-02-19T06:36:31.569Z,102075.63
2023-02-19T06:37:03.267Z,102067.03
2023-02-19T06:37:34.690Z,102074.38
2023-02-19T06:38:06.036Z,102068.94
2023-02-19T06:38:37.413Z,102077.53
2023-02-19T06:39:10.235Z,102075.63
2023-02-19T06:39:41.703Z,102082.19
2023-02-19T06:40:13.076Z,102070.88